sensor_id;sensor_type;location;lat;lon;timestamp;P1;durP1;ratioP1;P2;durP2;ratioP2
31037;SDS011;17702;47.590;7.666;2022-08-01T00:00:59;7.72;;;4.28;;
31037;SDS011;17702;47.590;7.666;2022-08-01T00:03:25;7.57;;;4.72;;
31037;SDS011;17702;47.590;7.666;2022-08-01T00:05:50;4.57;;;4.22;;
31037;SDS011;17702;47.590;7.666;2022-08-01T00:08:16;4.90;;;4.50;;
31037;SDS011;17702;47.590;7.666;2022-08-01T00:10:41;6.00;;;4.75;;
31037;SDS011;17702;47.590;7.666;2022-08-01T00:13:07;5.07;;;4.07;;
31037;SDS011;17702;47.590;7.666;2022-08-01T00:15:33;5.07;;;4.22;;
31037;SDS011;17702;47.590;7.666;2022-08-01T00:17:58;4.70;;;4.32;;
31037;SDS011;17702;47.590;7.666;2022-08-01T00:20:24;5.68;;;4.22;;
31037;SDS011;17702;47.590;7.666;2022-08-01T00:22:50;3.92;;;3.67;;
31037;SDS011;17702;47.590;7.666;2022-08-01T00:25:15;4.60;;;3.88;;
31037;SDS011;17702;47.590;7.666;2022-08-01T00:27:41;8.15;;;4.38;;
31037;SDS011;17702;47.590;7.666;2022-08-01T00:30:07;5.18;;;3.42;;
31037;SDS011;17702;47.590;7.666;2022-08-01T00:32:32;5.03;;;3.40;;
31037;SDS011;17702;47.590;7.666;2022-08-01T00:34:58;3.67;;;2.97;;
31037;SDS011;17702;47.590;7.666;2022-08-01T00:37:24;3.97;;;3.63;;
31037;SDS011;17702;47.590;7.666;2022-08-01T00:39:49;4.65;;;3.33;;
31037;SDS011;17702;47.590;7.666;2022-08-01T00:42:15;7.90;;;3.50;;
31037;SDS011;17702;47.590;7.666;2022-08-01T00:44:41;4.72;;;3.33;;
31037;SDS011;17702;47.590;7.666;2022-08-01T00:47:07;3.60;;;3.30;;
31037;SDS011;17702;47.590;7.666;2022-08-01T00:49:33;3.92;;;3.45;;
31037;SDS011;17702;47.590;7.666;2022-08-01T00:51:58;3.67;;;3.38;;
31037;SDS011;17702;47.590;7.666;2022-08-01T00:54:25;4.38;;;3.60;;
31037;SDS011;17702;47.590;7.666;2022-08-01T00:56:52;4.03;;;3.65;;
31037;SDS011;17702;47.590;7.666;2022-08-01T00:59:18;4.15;;;3.75;;
31037;SDS011;17702;47.590;7.666;2022-08-01T01:01:46;4.32;;;4.00;;
31037;SDS011;17702;47.590;7.666;2022-08-01T01:04:11;4.28;;;3.88;;
31037;SDS011;17702;47.590;7.666;2022-08-01T01:09:42;3.75;;;3.45;;
31037;SDS011;17702;47.590;7.666;2022-08-01T01:18:47;3.45;;;3.22;;
31037;SDS011;17702;47.590;7.666;2022-08-01T01:20:51;3.78;;;3.45;;
31037;SDS011;17702;47.590;7.666;2022-08-01T01:28:35;6.13;;;3.22;;
31037;SDS011;17702;47.590;7.666;2022-08-01T01:31:22;5.65;;;3.40;;
31037;SDS011;17702;47.590;7.666;2022-08-01T01:33:50;3.50;;;3.20;;
31037;SDS011;17702;47.590;7.666;2022-08-01T01:36:18;3.85;;;3.38;;
31037;SDS011;17702;47.590;7.666;2022-08-01T01:38:46;4.47;;;3.30;;
31037;SDS011;17702;47.590;7.666;2022-08-01T01:41:14;4.35;;;3.17;;
31037;SDS011;17702;47.590;7.666;2022-08-01T01:43:42;3.13;;;2.92;;
31037;SDS011;17702;47.590;7.666;2022-08-01T01:46:10;6.88;;;2.97;;
31037;SDS011;17702;47.590;7.666;2022-08-01T01:48:39;4.75;;;3.58;;
31037;SDS011;17702;47.590;7.666;2022-08-01T01:51:05;3.75;;;3.20;;
31037;SDS011;17702;47.590;7.666;2022-08-01T01:53:32;4.13;;;3.50;;
31037;SDS011;17702;47.590;7.666;2022-08-01T01:55:59;3.88;;;3.63;;
31037;SDS011;17702;47.590;7.666;2022-08-01T01:58:27;3.70;;;3.38;;
31037;SDS011;17702;47.590;7.666;2022-08-01T02:00:53;4.07;;;3.47;;
31037;SDS011;17702;47.590;7.666;2022-08-01T02:03:21;4.18;;;3.13;;
31037;SDS011;17702;47.590;7.666;2022-08-01T02:05:48;4.03;;;3.30;;
31037;SDS011;17702;47.590;7.666;2022-08-01T02:08:14;6.75;;;3.70;;
31037;SDS011;17702;47.590;7.666;2022-08-01T02:10:41;4.05;;;3.50;;
31037;SDS011;17702;47.590;7.666;2022-08-01T02:13:30;3.97;;;3.63;;
31037;SDS011;17702;47.590;7.666;2022-08-01T02:15:57;4.60;;;3.50;;
31037;SDS011;17702;47.590;7.666;2022-08-01T02:18:24;4.82;;;3.67;;
31037;SDS011;17702;47.590;7.666;2022-08-01T02:20:50;3.45;;;3.25;;
31037;SDS011;17702;47.590;7.666;2022-08-01T02:23:19;4.70;;;3.97;;
31037;SDS011;17702;47.590;7.666;2022-08-01T02:25:48;6.28;;;3.63;;
31037;SDS011;17702;47.590;7.666;2022-08-01T02:28:17;3.78;;;3.42;;
31037;SDS011;17702;47.590;7.666;2022-08-01T02:30:43;3.75;;;3.55;;
31037;SDS011;17702;47.590;7.666;2022-08-01T02:33:14;3.70;;;3.40;;
31037;SDS011;17702;47.590;7.666;2022-08-01T02:35:48;3.75;;;3.47;;
31037;SDS011;17702;47.590;7.666;2022-08-01T02:38:16;4.68;;;4.28;;
31037;SDS011;17702;47.590;7.666;2022-08-01T02:40:45;3.45;;;2.95;;
31037;SDS011;17702;47.590;7.666;2022-08-01T02:43:15;4.53;;;3.38;;
31037;SDS011;17702;47.590;7.666;2022-08-01T02:45:47;3.58;;;3.38;;
31037;SDS011;17702;47.590;7.666;2022-08-01T02:48:17;5.38;;;3.40;;
31037;SDS011;17702;47.590;7.666;2022-08-01T02:50:45;3.45;;;3.15;;
31037;SDS011;17702;47.590;7.666;2022-08-01T02:53:13;5.55;;;3.20;;
31037;SDS011;17702;47.590;7.666;2022-08-01T02:55:41;4.20;;;3.60;;
31037;SDS011;17702;47.590;7.666;2022-08-01T02:58:10;3.25;;;3.08;;
31037;SDS011;17702;47.590;7.666;2022-08-01T03:00:37;6.15;;;3.50;;
31037;SDS011;17702;47.590;7.666;2022-08-01T03:03:06;6.88;;;3.47;;
31037;SDS011;17702;47.590;7.666;2022-08-01T03:05:33;4.03;;;3.63;;
31037;SDS011;17702;47.590;7.666;2022-08-01T03:08:00;6.38;;;3.38;;
31037;SDS011;17702;47.590;7.666;2022-08-01T03:10:27;3.70;;;3.40;;
31037;SDS011;17702;47.590;7.666;2022-08-01T03:12:53;4.05;;;3.33;;
31037;SDS011;17702;47.590;7.666;2022-08-01T03:15:20;4.50;;;3.05;;
31037;SDS011;17702;47.590;7.666;2022-08-01T03:17:49;4.13;;;3.05;;
31037;SDS011;17702;47.590;7.666;2022-08-01T03:20:16;7.28;;;3.42;;
31037;SDS011;17702;47.590;7.666;2022-08-01T03:22:45;3.65;;;3.35;;
31037;SDS011;17702;47.590;7.666;2022-08-01T03:25:13;8.25;;;3.95;;
31037;SDS011;17702;47.590;7.666;2022-08-01T03:27:42;5.90;;;3.17;;
31037;SDS011;17702;47.590;7.666;2022-08-01T03:30:10;3.95;;;3.30;;
31037;SDS011;17702;47.590;7.666;2022-08-01T03:32:37;4.25;;;3.40;;
31037;SDS011;17702;47.590;7.666;2022-08-01T03:35:03;6.13;;;3.05;;
31037;SDS011;17702;47.590;7.666;2022-08-01T03:37:33;6.90;;;3.00;;
31037;SDS011;17702;47.590;7.666;2022-08-01T03:40:08;17.85;;;3.72;;
31037;SDS011;17702;47.590;7.666;2022-08-01T03:42:58;4.85;;;3.55;;
31037;SDS011;17702;47.590;7.666;2022-08-01T03:45:31;3.50;;;3.30;;
31037;SDS011;17702;47.590;7.666;2022-08-01T03:48:02;3.63;;;3.40;;
31037;SDS011;17702;47.590;7.666;2022-08-01T03:50:33;3.90;;;3.50;;
31037;SDS011;17702;47.590;7.666;2022-08-01T03:53:02;4.68;;;3.67;;
31037;SDS011;17702;47.590;7.666;2022-08-01T03:55:29;3.75;;;3.42;;
31037;SDS011;17702;47.590;7.666;2022-08-01T03:57:57;4.10;;;3.70;;
31037;SDS011;17702;47.590;7.666;2022-08-01T04:00:24;3.83;;;3.50;;
31037;SDS011;17702;47.590;7.666;2022-08-01T04:02:51;4.80;;;3.60;;
31037;SDS011;17702;47.590;7.666;2022-08-01T04:05:17;9.93;;;4.18;;
31037;SDS011;17702;47.590;7.666;2022-08-01T04:07:47;4.70;;;3.78;;
31037;SDS011;17702;47.590;7.666;2022-08-01T04:10:20;4.43;;;3.88;;
31037;SDS011;17702;47.590;7.666;2022-08-01T04:12:47;4.18;;;3.75;;
31037;SDS011;17702;47.590;7.666;2022-08-01T04:15:12;4.18;;;3.78;;
31037;SDS011;17702;47.590;7.666;2022-08-01T04:17:39;5.57;;;3.88;;
31037;SDS011;17702;47.590;7.666;2022-08-01T04:20:04;4.18;;;3.83;;
31037;SDS011;17702;47.590;7.666;2022-08-01T04:22:30;5.25;;;4.75;;
31037;SDS011;17702;47.590;7.666;2022-08-01T04:24:56;4.75;;;4.45;;
31037;SDS011;17702;47.590;7.666;2022-08-01T04:27:27;4.38;;;3.97;;
31037;SDS011;17702;47.590;7.666;2022-08-01T04:29:56;4.00;;;3.70;;
31037;SDS011;17702;47.590;7.666;2022-08-01T04:32:24;4.43;;;4.03;;
31037;SDS011;17702;47.590;7.666;2022-08-01T04:34:52;5.20;;;4.00;;
31037;SDS011;17702;47.590;7.666;2022-08-01T04:37:21;4.22;;;3.95;;
31037;SDS011;17702;47.590;7.666;2022-08-01T04:39:48;4.65;;;4.28;;
31037;SDS011;17702;47.590;7.666;2022-08-01T04:42:16;4.30;;;4.00;;
31037;SDS011;17702;47.590;7.666;2022-08-01T04:44:42;4.30;;;4.00;;
31037;SDS011;17702;47.590;7.666;2022-08-01T04:47:09;7.07;;;3.88;;
31037;SDS011;17702;47.590;7.666;2022-08-01T04:49:36;4.68;;;3.75;;
31037;SDS011;17702;47.590;7.666;2022-08-01T04:52:03;5.15;;;3.85;;
31037;SDS011;17702;47.590;7.666;2022-08-01T04:54:31;4.35;;;4.03;;
31037;SDS011;17702;47.590;7.666;2022-08-01T04:56:59;6.47;;;4.43;;
31037;SDS011;17702;47.590;7.666;2022-08-01T04:59:26;5.00;;;4.18;;
31037;SDS011;17702;47.590;7.666;2022-08-01T05:02:11;4.53;;;4.13;;
31037;SDS011;17702;47.590;7.666;2022-08-01T05:04:41;4.57;;;4.20;;
31037;SDS011;17702;47.590;7.666;2022-08-01T05:07:08;4.30;;;3.92;;
31037;SDS011;17702;47.590;7.666;2022-08-01T05:09:35;4.30;;;3.90;;
31037;SDS011;17702;47.590;7.666;2022-08-01T05:12:02;5.35;;;4.93;;
31037;SDS011;17702;47.590;7.666;2022-08-01T05:14:29;4.63;;;4.18;;
31037;SDS011;17702;47.590;7.666;2022-08-01T05:16:58;4.63;;;4.32;;
31037;SDS011;17702;47.590;7.666;2022-08-01T05:19:27;4.78;;;4.38;;
31037;SDS011;17702;47.590;7.666;2022-08-01T05:21:58;4.78;;;4.43;;
31037;SDS011;17702;47.590;7.666;2022-08-01T05:24:25;4.03;;;3.72;;
31037;SDS011;17702;47.590;7.666;2022-08-01T05:26:54;7.85;;;4.10;;
31037;SDS011;17702;47.590;7.666;2022-08-01T05:29:21;3.78;;;3.47;;
31037;SDS011;17702;47.590;7.666;2022-08-01T05:31:47;4.63;;;4.00;;
31037;SDS011;17702;47.590;7.666;2022-08-01T05:34:12;4.38;;;4.07;;
31037;SDS011;17702;47.590;7.666;2022-08-01T05:36:38;4.05;;;3.70;;
31037;SDS011;17702;47.590;7.666;2022-08-01T05:39:04;6.88;;;4.07;;
31037;SDS011;17702;47.590;7.666;2022-08-01T05:41:30;4.13;;;3.75;;
31037;SDS011;17702;47.590;7.666;2022-08-01T05:43:55;4.25;;;3.90;;
31037;SDS011;17702;47.590;7.666;2022-08-01T05:46:21;4.90;;;3.70;;
31037;SDS011;17702;47.590;7.666;2022-08-01T05:48:47;4.78;;;3.88;;
31037;SDS011;17702;47.590;7.666;2022-08-01T05:51:12;3.75;;;3.45;;
31037;SDS011;17702;47.590;7.666;2022-08-01T05:53:38;4.22;;;3.45;;
31037;SDS011;17702;47.590;7.666;2022-08-01T05:56:04;4.55;;;3.60;;
31037;SDS011;17702;47.590;7.666;2022-08-01T05:58:30;5.00;;;3.60;;
31037;SDS011;17702;47.590;7.666;2022-08-01T06:00:56;5.07;;;4.15;;
31037;SDS011;17702;47.590;7.666;2022-08-01T06:03:22;4.15;;;3.72;;
31037;SDS011;17702;47.590;7.666;2022-08-01T06:05:48;5.05;;;4.15;;
31037;SDS011;17702;47.590;7.666;2022-08-01T06:08:14;4.30;;;3.88;;
31037;SDS011;17702;47.590;7.666;2022-08-01T06:10:40;4.35;;;4.05;;
31037;SDS011;17702;47.590;7.666;2022-08-01T06:13:05;4.20;;;3.80;;
31037;SDS011;17702;47.590;7.666;2022-08-01T06:15:32;4.10;;;3.80;;
31037;SDS011;17702;47.590;7.666;2022-08-01T06:17:58;8.07;;;4.03;;
31037;SDS011;17702;47.590;7.666;2022-08-01T06:20:24;5.82;;;3.90;;
31037;SDS011;17702;47.590;7.666;2022-08-01T06:22:49;6.63;;;4.00;;
31037;SDS011;17702;47.590;7.666;2022-08-01T06:25:16;4.43;;;3.88;;
31037;SDS011;17702;47.590;7.666;2022-08-01T06:27:43;10.20;;;4.10;;
31037;SDS011;17702;47.590;7.666;2022-08-01T06:30:09;4.80;;;4.40;;
31037;SDS011;17702;47.590;7.666;2022-08-01T06:32:35;3.92;;;3.63;;
31037;SDS011;17702;47.590;7.666;2022-08-01T06:35:00;4.35;;;4.00;;
31037;SDS011;17702;47.590;7.666;2022-08-01T06:37:29;9.77;;;4.25;;
31037;SDS011;17702;47.590;7.666;2022-08-01T06:39:56;4.63;;;3.45;;
31037;SDS011;17702;47.590;7.666;2022-08-01T06:42:28;6.75;;;3.60;;
31037;SDS011;17702;47.590;7.666;2022-08-01T06:44:56;3.95;;;3.55;;
31037;SDS011;17702;47.590;7.666;2022-08-01T06:47:22;5.55;;;3.45;;
31037;SDS011;17702;47.590;7.666;2022-08-01T06:49:48;5.45;;;3.25;;
31037;SDS011;17702;47.590;7.666;2022-08-01T06:52:14;5.40;;;3.78;;
31037;SDS011;17702;47.590;7.666;2022-08-01T06:54:39;4.30;;;4.05;;
31037;SDS011;17702;47.590;7.666;2022-08-01T06:57:05;7.72;;;3.95;;
31037;SDS011;17702;47.590;7.666;2022-08-01T06:59:31;4.45;;;3.90;;
31037;SDS011;17702;47.590;7.666;2022-08-01T07:01:57;8.73;;;3.65;;
31037;SDS011;17702;47.590;7.666;2022-08-01T07:04:22;7.97;;;3.85;;
31037;SDS011;17702;47.590;7.666;2022-08-01T07:06:48;5.00;;;3.10;;
31037;SDS011;17702;47.590;7.666;2022-08-01T07:09:14;5.32;;;3.60;;
31037;SDS011;17702;47.590;7.666;2022-08-01T07:11:39;3.75;;;3.17;;
31037;SDS011;17702;47.590;7.666;2022-08-01T07:14:05;4.20;;;3.88;;
31037;SDS011;17702;47.590;7.666;2022-08-01T07:16:31;4.45;;;3.42;;
31037;SDS011;17702;47.590;7.666;2022-08-01T07:18:56;4.85;;;3.38;;
31037;SDS011;17702;47.590;7.666;2022-08-01T07:21:22;4.85;;;3.20;;
31037;SDS011;17702;47.590;7.666;2022-08-01T07:23:47;6.07;;;3.28;;
31037;SDS011;17702;47.590;7.666;2022-08-01T07:26:13;3.67;;;3.38;;
31037;SDS011;17702;47.590;7.666;2022-08-01T07:28:39;6.05;;;3.38;;
31037;SDS011;17702;47.590;7.666;2022-08-01T07:31:04;8.63;;;3.40;;
31037;SDS011;17702;47.590;7.666;2022-08-01T07:33:30;3.85;;;3.55;;
31037;SDS011;17702;47.590;7.666;2022-08-01T07:35:55;3.55;;;3.28;;
31037;SDS011;17702;47.590;7.666;2022-08-01T07:38:21;3.05;;;2.85;;
31037;SDS011;17702;47.590;7.666;2022-08-01T07:40:47;6.28;;;3.88;;
31037;SDS011;17702;47.590;7.666;2022-08-01T07:43:12;3.78;;;3.30;;
31037;SDS011;17702;47.590;7.666;2022-08-01T07:45:38;3.92;;;2.90;;
31037;SDS011;17702;47.590;7.666;2022-08-01T07:48:06;2.92;;;2.60;;
31037;SDS011;17702;47.590;7.666;2022-08-01T07:50:32;3.30;;;3.00;;
31037;SDS011;17702;47.590;7.666;2022-08-01T07:52:59;2.85;;;2.65;;
31037;SDS011;17702;47.590;7.666;2022-08-01T07:55:25;4.13;;;2.95;;
31037;SDS011;17702;47.590;7.666;2022-08-01T07:57:51;4.00;;;3.10;;
31037;SDS011;17702;47.590;7.666;2022-08-01T08:00:17;3.58;;;2.78;;
31037;SDS011;17702;47.590;7.666;2022-08-01T08:02:43;2.95;;;2.75;;
31037;SDS011;17702;47.590;7.666;2022-08-01T08:05:09;3.78;;;2.80;;
31037;SDS011;17702;47.590;7.666;2022-08-01T08:07:36;4.10;;;2.83;;
31037;SDS011;17702;47.590;7.666;2022-08-01T08:10:02;4.40;;;2.90;;
31037;SDS011;17702;47.590;7.666;2022-08-01T08:12:28;3.05;;;2.92;;
31037;SDS011;17702;47.590;7.666;2022-08-01T08:14:54;6.35;;;3.08;;
31037;SDS011;17702;47.590;7.666;2022-08-01T08:17:20;3.63;;;2.70;;
31037;SDS011;17702;47.590;7.666;2022-08-01T08:19:45;3.25;;;3.05;;
31037;SDS011;17702;47.590;7.666;2022-08-01T08:22:11;5.03;;;2.67;;
31037;SDS011;17702;47.590;7.666;2022-08-01T08:24:37;5.85;;;2.92;;
31037;SDS011;17702;47.590;7.666;2022-08-01T08:27:03;3.10;;;2.90;;
31037;SDS011;17702;47.590;7.666;2022-08-01T08:29:29;4.90;;;2.70;;
31037;SDS011;17702;47.590;7.666;2022-08-01T08:31:57;3.00;;;2.70;;
31037;SDS011;17702;47.590;7.666;2022-08-01T08:34:24;3.45;;;2.30;;
31037;SDS011;17702;47.590;7.666;2022-08-01T08:36:51;2.55;;;2.30;;
31037;SDS011;17702;47.590;7.666;2022-08-01T08:39:17;3.15;;;2.42;;
31037;SDS011;17702;47.590;7.666;2022-08-01T08:41:43;4.03;;;2.70;;
31037;SDS011;17702;47.590;7.666;2022-08-01T08:44:09;2.58;;;2.38;;
31037;SDS011;17702;47.590;7.666;2022-08-01T08:46:40;2.72;;;2.20;;
31037;SDS011;17702;47.590;7.666;2022-08-01T08:49:07;2.80;;;2.47;;
31037;SDS011;17702;47.590;7.666;2022-08-01T08:51:34;2.30;;;1.92;;
31037;SDS011;17702;47.590;7.666;2022-08-01T08:54:03;2.67;;;1.93;;
31037;SDS011;17702;47.590;7.666;2022-08-01T08:56:31;3.17;;;2.35;;
31037;SDS011;17702;47.590;7.666;2022-08-01T08:58:59;2.88;;;2.20;;
31037;SDS011;17702;47.590;7.666;2022-08-01T09:01:26;5.20;;;2.30;;
31037;SDS011;17702;47.590;7.666;2022-08-01T09:03:51;3.42;;;2.33;;
31037;SDS011;17702;47.590;7.666;2022-08-01T09:06:18;2.65;;;1.77;;
31037;SDS011;17702;47.590;7.666;2022-08-01T09:08:45;3.40;;;1.90;;
31037;SDS011;17702;47.590;7.666;2022-08-01T09:11:11;2.00;;;1.90;;
31037;SDS011;17702;47.590;7.666;2022-08-01T09:13:37;3.47;;;2.00;;
31037;SDS011;17702;47.590;7.666;2022-08-01T09:16:03;4.40;;;2.45;;
31037;SDS011;17702;47.590;7.666;2022-08-01T09:18:37;2.55;;;2.35;;
31037;SDS011;17702;47.590;7.666;2022-08-01T09:21:09;2.55;;;2.35;;
31037;SDS011;17702;47.590;7.666;2022-08-01T09:23:56;2.53;;;2.17;;
31037;SDS011;17702;47.590;7.666;2022-08-01T09:26:30;2.25;;;2.15;;
31037;SDS011;17702;47.590;7.666;2022-08-01T09:28:57;3.90;;;2.40;;
31037;SDS011;17702;47.590;7.666;2022-08-01T09:31:25;3.15;;;1.70;;
31037;SDS011;17702;47.590;7.666;2022-08-01T09:33:53;2.20;;;2.10;;
31037;SDS011;17702;47.590;7.666;2022-08-01T09:36:19;3.42;;;2.22;;
31037;SDS011;17702;47.590;7.666;2022-08-01T09:38:47;3.80;;;2.05;;
31037;SDS011;17702;47.590;7.666;2022-08-01T09:41:13;1.80;;;1.70;;
31037;SDS011;17702;47.590;7.666;2022-08-01T09:43:39;2.63;;;1.90;;
31037;SDS011;17702;47.590;7.666;2022-08-01T09:46:08;2.05;;;1.90;;
31037;SDS011;17702;47.590;7.666;2022-08-01T09:48:36;2.67;;;1.90;;
31037;SDS011;17702;47.590;7.666;2022-08-01T09:51:04;2.15;;;1.65;;
31037;SDS011;17702;47.590;7.666;2022-08-01T09:53:45;2.95;;;1.83;;
31037;SDS011;17702;47.590;7.666;2022-08-01T09:58:56;1.70;;;1.60;;
31037;SDS011;17702;47.590;7.666;2022-08-01T10:01:23;2.05;;;1.95;;
31037;SDS011;17702;47.590;7.666;2022-08-01T10:06:46;1.35;;;1.25;;
31037;SDS011;17702;47.590;7.666;2022-08-01T10:09:25;1.55;;;1.45;;
31037;SDS011;17702;47.590;7.666;2022-08-01T10:11:53;1.63;;;1.30;;
31037;SDS011;17702;47.590;7.666;2022-08-01T10:14:20;2.05;;;1.52;;
31037;SDS011;17702;47.590;7.666;2022-08-01T10:16:48;2.17;;;1.17;;
31037;SDS011;17702;47.590;7.666;2022-08-01T10:19:16;2.90;;;1.65;;
31037;SDS011;17702;47.590;7.666;2022-08-01T10:21:43;2.05;;;1.42;;
31037;SDS011;17702;47.590;7.666;2022-08-01T10:24:09;1.95;;;1.80;;
31037;SDS011;17702;47.590;7.666;2022-08-01T10:26:37;6.05;;;1.88;;
31037;SDS011;17702;47.590;7.666;2022-08-01T10:29:05;1.98;;;1.73;;
31037;SDS011;17702;47.590;7.666;2022-08-01T10:31:30;4.88;;;2.00;;
31037;SDS011;17702;47.590;7.666;2022-08-01T10:33:58;1.40;;;1.30;;
31037;SDS011;17702;47.590;7.666;2022-08-01T10:36:25;2.92;;;1.35;;
31037;SDS011;17702;47.590;7.666;2022-08-01T10:38:55;1.90;;;1.15;;
31037;SDS011;17702;47.590;7.666;2022-08-01T10:41:21;1.83;;;1.05;;
31037;SDS011;17702;47.590;7.666;2022-08-01T10:43:47;2.50;;;1.48;;
31037;SDS011;17702;47.590;7.666;2022-08-01T10:46:13;2.92;;;1.55;;
31037;SDS011;17702;47.590;7.666;2022-08-01T10:48:47;1.88;;;1.75;;
31037;SDS011;17702;47.590;7.666;2022-08-01T10:51:20;1.08;;;1.08;;
31037;SDS011;17702;47.590;7.666;2022-08-01T10:53:55;3.78;;;1.77;;
31037;SDS011;17702;47.590;7.666;2022-08-01T10:56:22;3.20;;;1.65;;
31037;SDS011;17702;47.590;7.666;2022-08-01T10:58:49;1.75;;;1.10;;
31037;SDS011;17702;47.590;7.666;2022-08-01T11:01:29;1.63;;;1.50;;
31037;SDS011;17702;47.590;7.666;2022-08-01T11:06:27;4.00;;;1.40;;
31037;SDS011;17702;47.590;7.666;2022-08-01T11:09:01;1.45;;;1.35;;
31037;SDS011;17702;47.590;7.666;2022-08-01T11:14:26;1.80;;;1.70;;
31037;SDS011;17702;47.590;7.666;2022-08-01T11:16:52;1.15;;;1.10;;
31037;SDS011;17702;47.590;7.666;2022-08-01T11:19:18;1.30;;;1.20;;
31037;SDS011;17702;47.590;7.666;2022-08-01T11:27:18;1.80;;;1.17;;
31037;SDS011;17702;47.590;7.666;2022-08-01T11:32:48;1.25;;;1.25;;
31037;SDS011;17702;47.590;7.666;2022-08-01T11:35:13;1.70;;;1.27;;
31037;SDS011;17702;47.590;7.666;2022-08-01T11:37:40;2.13;;;1.00;;
31037;SDS011;17702;47.590;7.666;2022-08-01T11:40:15;0.90;;;0.90;;
31037;SDS011;17702;47.590;7.666;2022-08-01T11:42:48;1.95;;;1.20;;
31037;SDS011;17702;47.590;7.666;2022-08-01T11:45:15;1.08;;;0.98;;
31037;SDS011;17702;47.590;7.666;2022-08-01T11:52:57;2.65;;;1.15;;
31037;SDS011;17702;47.590;7.666;2022-08-01T11:55:24;2.03;;;1.20;;
31037;SDS011;17702;47.590;7.666;2022-08-01T11:58:00;3.85;;;1.00;;
31037;SDS011;17702;47.590;7.666;2022-08-01T12:00:30;1.40;;;1.30;;
31037;SDS011;17702;47.590;7.666;2022-08-01T12:02:57;1.92;;;1.10;;
31037;SDS011;17702;47.590;7.666;2022-08-01T12:05:24;1.13;;;1.05;;
31037;SDS011;17702;47.590;7.666;2022-08-01T12:07:51;3.40;;;1.33;;
31037;SDS011;17702;47.590;7.666;2022-08-01T12:10:26;1.20;;;1.20;;
31037;SDS011;17702;47.590;7.666;2022-08-01T12:13:00;1.38;;;1.27;;
31037;SDS011;17702;47.590;7.666;2022-08-01T12:15:34;1.65;;;1.13;;
31037;SDS011;17702;47.590;7.666;2022-08-01T12:18:03;1.60;;;1.50;;
31037;SDS011;17702;47.590;7.666;2022-08-01T12:20:30;2.10;;;1.20;;
31037;SDS011;17702;47.590;7.666;2022-08-01T12:23:00;1.50;;;1.17;;
31037;SDS011;17702;47.590;7.666;2022-08-01T12:25:32;1.10;;;1.10;;
31037;SDS011;17702;47.590;7.666;2022-08-01T12:28:08;1.17;;;1.10;;
31037;SDS011;17702;47.590;7.666;2022-08-01T12:30:35;3.25;;;1.38;;
31037;SDS011;17702;47.590;7.666;2022-08-01T12:33:02;1.42;;;1.20;;
31037;SDS011;17702;47.590;7.666;2022-08-01T12:35:30;1.50;;;0.90;;
31037;SDS011;17702;47.590;7.666;2022-08-01T12:38:07;1.02;;;1.02;;
31037;SDS011;17702;47.590;7.666;2022-08-01T12:40:40;1.10;;;0.80;;
31037;SDS011;17702;47.590;7.666;2022-08-01T12:43:08;1.30;;;1.10;;
31037;SDS011;17702;47.590;7.666;2022-08-01T12:48:08;4.47;;;1.20;;
31037;SDS011;17702;47.590;7.666;2022-08-01T12:50:37;1.92;;;1.40;;
31037;SDS011;17702;47.590;7.666;2022-08-01T12:53:05;2.38;;;1.25;;
31037;SDS011;17702;47.590;7.666;2022-08-01T12:55:30;2.05;;;0.88;;
31037;SDS011;17702;47.590;7.666;2022-08-01T12:58:04;1.10;;;1.10;;
31037;SDS011;17702;47.590;7.666;2022-08-01T13:00:31;2.58;;;0.93;;
31037;SDS011;17702;47.590;7.666;2022-08-01T13:03:04;1.30;;;1.17;;
31037;SDS011;17702;47.590;7.666;2022-08-01T13:05:47;1.33;;;1.25;;
31037;SDS011;17702;47.590;7.666;2022-08-01T13:08:15;1.80;;;1.00;;
31037;SDS011;17702;47.590;7.666;2022-08-01T13:11:00;1.13;;;1.00;;
31037;SDS011;17702;47.590;7.666;2022-08-01T13:13:40;1.15;;;1.02;;
31037;SDS011;17702;47.590;7.666;2022-08-01T13:16:07;2.08;;;1.40;;
31037;SDS011;17702;47.590;7.666;2022-08-01T13:18:34;2.88;;;1.08;;
31037;SDS011;17702;47.590;7.666;2022-08-01T13:23:59;2.42;;;1.13;;
31037;SDS011;17702;47.590;7.666;2022-08-01T13:29:09;1.30;;;1.23;;
31037;SDS011;17702;47.590;7.666;2022-08-01T13:31:37;1.92;;;1.20;;
31037;SDS011;17702;47.590;7.666;2022-08-01T13:34:03;1.25;;;0.90;;
31037;SDS011;17702;47.590;7.666;2022-08-01T13:36:30;0.70;;;0.70;;
31037;SDS011;17702;47.590;7.666;2022-08-01T13:38:56;1.02;;;0.95;;
31037;SDS011;17702;47.590;7.666;2022-08-01T13:41:41;1.20;;;1.20;;
31037;SDS011;17702;47.590;7.666;2022-08-01T13:44:07;0.80;;;0.80;;
31037;SDS011;17702;47.590;7.666;2022-08-01T13:46:34;1.13;;;0.98;;
31037;SDS011;17702;47.590;7.666;2022-08-01T13:49:00;2.03;;;1.00;;
31037;SDS011;17702;47.590;7.666;2022-08-01T13:51:26;1.05;;;0.95;;
31037;SDS011;17702;47.590;7.666;2022-08-01T13:53:52;1.17;;;1.17;;
31037;SDS011;17702;47.590;7.666;2022-08-01T13:56:17;2.72;;;1.13;;
31037;SDS011;17702;47.590;7.666;2022-08-01T13:58:44;3.50;;;0.90;;
31037;SDS011;17702;47.590;7.666;2022-08-01T14:01:11;0.98;;;0.98;;
31037;SDS011;17702;47.590;7.666;2022-08-01T14:03:37;1.10;;;1.10;;
31037;SDS011;17702;47.590;7.666;2022-08-01T14:06:03;0.90;;;0.80;;
31037;SDS011;17702;47.590;7.666;2022-08-01T14:08:29;2.15;;;0.98;;
31037;SDS011;17702;47.590;7.666;2022-08-01T14:10:55;1.05;;;0.70;;
31037;SDS011;17702;47.590;7.666;2022-08-01T14:13:23;1.30;;;1.10;;
31037;SDS011;17702;47.590;7.666;2022-08-01T14:15:52;2.78;;;1.10;;
31037;SDS011;17702;47.590;7.666;2022-08-01T14:18:18;1.13;;;1.13;;
31037;SDS011;17702;47.590;7.666;2022-08-01T14:20:43;1.33;;;0.88;;
31037;SDS011;17702;47.590;7.666;2022-08-01T14:23:09;2.25;;;0.90;;
31037;SDS011;17702;47.590;7.666;2022-08-01T14:25:36;1.42;;;1.20;;
31037;SDS011;17702;47.590;7.666;2022-08-01T14:28:02;1.33;;;1.23;;
31037;SDS011;17702;47.590;7.666;2022-08-01T14:30:28;0.95;;;0.95;;
31037;SDS011;17702;47.590;7.666;2022-08-01T14:32:54;2.13;;;1.13;;
31037;SDS011;17702;47.590;7.666;2022-08-01T14:35:20;1.40;;;1.30;;
31037;SDS011;17702;47.590;7.666;2022-08-01T14:37:46;1.40;;;1.30;;
31037;SDS011;17702;47.590;7.666;2022-08-01T14:40:11;1.40;;;1.30;;
31037;SDS011;17702;47.590;7.666;2022-08-01T14:42:38;1.50;;;1.40;;
31037;SDS011;17702;47.590;7.666;2022-08-01T14:45:04;2.83;;;1.42;;
31037;SDS011;17702;47.590;7.666;2022-08-01T14:47:37;1.98;;;1.35;;
31037;SDS011;17702;47.590;7.666;2022-08-01T14:50:04;2.47;;;1.30;;
31037;SDS011;17702;47.590;7.666;2022-08-01T14:52:32;1.35;;;1.20;;
31037;SDS011;17702;47.590;7.666;2022-08-01T14:54:58;1.73;;;1.30;;
31037;SDS011;17702;47.590;7.666;2022-08-01T14:57:24;1.58;;;1.40;;
31037;SDS011;17702;47.590;7.666;2022-08-01T14:59:50;4.88;;;1.40;;
31037;SDS011;17702;47.590;7.666;2022-08-01T15:02:15;5.28;;;1.83;;
31037;SDS011;17702;47.590;7.666;2022-08-01T15:04:44;1.98;;;1.45;;
31037;SDS011;17702;47.590;7.666;2022-08-01T15:07:11;1.58;;;1.48;;
31037;SDS011;17702;47.590;7.666;2022-08-01T15:09:37;2.10;;;1.30;;
31037;SDS011;17702;47.590;7.666;2022-08-01T15:12:03;3.25;;;1.65;;
31037;SDS011;17702;47.590;7.666;2022-08-01T15:14:29;1.58;;;1.48;;
31037;SDS011;17702;47.590;7.666;2022-08-01T15:17:12;2.25;;;1.35;;
31037;SDS011;17702;47.590;7.666;2022-08-01T15:19:44;2.65;;;1.33;;
31037;SDS011;17702;47.590;7.666;2022-08-01T15:22:14;1.88;;;1.70;;
31037;SDS011;17702;47.590;7.666;2022-08-01T15:24:40;1.58;;;1.48;;
31037;SDS011;17702;47.590;7.666;2022-08-01T15:27:06;4.43;;;1.90;;
31037;SDS011;17702;47.590;7.666;2022-08-01T15:29:32;3.75;;;1.77;;
31037;SDS011;17702;47.590;7.666;2022-08-01T15:31:59;4.88;;;1.40;;
31037;SDS011;17702;47.590;7.666;2022-08-01T15:34:25;2.00;;;1.90;;
31037;SDS011;17702;47.590;7.666;2022-08-01T15:36:51;2.20;;;1.77;;
31037;SDS011;17702;47.590;7.666;2022-08-01T15:39:16;1.60;;;1.50;;